<?xml version="1.0" encoding="UTF-8" standalone="no" ?>
<gpx xmlns="http://www.topografix.com/GPX/1/1" xmlns:xsi="http://www.w3.org/2001/XMLSchema-instance" xsi:schemaLocation="http://www.topografix.com/GPX/1/1 http://www.topografix.com/GPX/1/1/gpx.xsd" version="1.1" creator="VisuGPX - https://www.visugpx.com">
  <metadata>
    <name>Etape 2 Férel - Les Moûtiers</name>
    <desc><![CDATA[Randonnée vélo Rennes - Hendaye, empruntant la Vélodyssée à partir de Saint-Brevin-Les-Pins. ]]></desc>
  </metadata>
  <trk>
    <name><![CDATA[Sequence 7]]></name>
    <trkseg>
      <trkpt lat="47.38087" lon="-2.19954">
        <ele>4</ele>
        <time>2016-07-22T05:49:27Z</time>
      </trkpt>
      <trkpt lat="47.38087" lon="-2.19953">
        <ele>6</ele>
        <time>2016-07-22T05:49:32Z</time>
      </trkpt>
      <trkpt lat="47.38082" lon="-2.19949">
        <ele>12</ele>
        <time>2016-07-22T05:49:39Z</time>
      </trkpt>
      <trkpt lat="47.38075" lon="-2.19945">
        <ele>13</ele>
        <time>2016-07-22T05:49:42Z</time>
      </trkpt>
      <trkpt lat="47.38054" lon="-2.19938">
        <ele>14</ele>
        <time>2016-07-22T05:49:47Z</time>
      </trkpt>
      <trkpt lat="47.38032" lon="-2.19924">
        <ele>7</ele>
        <time>2016-07-22T05:49:52Z</time>
      </trkpt>
      <trkpt lat="47.38001" lon="-2.19901">
        <ele>4</ele>
        <time>2016-07-22T05:49:59Z</time>
      </trkpt>
      <trkpt lat="47.37982" lon="-2.19886">
        <ele>3</ele>
        <time>2016-07-22T05:50:03Z</time>
      </trkpt>
      <trkpt lat="47.37962" lon="-2.19874">
        <ele>2</ele>
        <time>2016-07-22T05:50:07Z</time>
      </trkpt>
      <trkpt lat="47.37931" lon="-2.19853">
        <ele>1</ele>
        <time>2016-07-22T05:50:14Z</time>
      </trkpt>
      <trkpt lat="47.37916" lon="-2.19843">
        <ele>2</ele>
        <time>2016-07-22T05:50:17Z</time>
      </trkpt>
      <trkpt lat="47.37889" lon="-2.19826">
        <ele>2</ele>
        <time>2016-07-22T05:50:22Z</time>
      </trkpt>
      <trkpt lat="47.37864" lon="-2.1981">
        <ele>2.1</ele>
        <time>2016-07-22T05:50:27Z</time>
      </trkpt>
      <trkpt lat="47.37827" lon="-2.19786">
        <ele>-2</ele>
        <time>2016-07-22T05:50:34Z</time>
      </trkpt>
      <trkpt lat="47.37801" lon="-2.19767">
        <ele>-2</ele>
        <time>2016-07-22T05:50:39Z</time>
      </trkpt>
      <trkpt lat="47.37781" lon="-2.19768">
        <ele>-3</ele>
        <time>2016-07-22T05:50:42Z</time>
      </trkpt>
      <trkpt lat="47.37741" lon="-2.19786">
        <ele>3</ele>
        <time>2016-07-22T05:50:50Z</time>
      </trkpt>
      <trkpt lat="47.37727" lon="-2.19784">
        <ele>1</ele>
        <time>2016-07-22T05:50:53Z</time>
      </trkpt>
      <trkpt lat="47.37709" lon="-2.1978">
        <ele>2</ele>
        <time>2016-07-22T05:50:57Z</time>
      </trkpt>
      <trkpt lat="47.37683" lon="-2.19766">
        <ele>3</ele>
        <time>2016-07-22T05:51:02Z</time>
      </trkpt>
      <trkpt lat="47.37658" lon="-2.1975">
        <ele>2.7</ele>
        <time>2016-07-22T05:51:07Z</time>
      </trkpt>
      <trkpt lat="47.37631" lon="-2.19733">
        <ele>-1</ele>
        <time>2016-07-22T05:51:12Z</time>
      </trkpt>
      <trkpt lat="47.37582" lon="-2.197">
        <ele>-3</ele>
        <time>2016-07-22T05:51:20Z</time>
      </trkpt>
      <trkpt lat="47.37569" lon="-2.19691">
        <ele>-3</ele>
        <time>2016-07-22T05:51:22Z</time>
      </trkpt>
      <trkpt lat="47.37539" lon="-2.19672">
        <ele>-2</ele>
        <time>2016-07-22T05:51:27Z</time>
      </trkpt>
      <trkpt lat="47.3751" lon="-2.1965">
        <ele>-3</ele>
        <time>2016-07-22T05:51:32Z</time>
      </trkpt>
      <trkpt lat="47.37483" lon="-2.19628">
        <ele>1.5</ele>
        <time>2016-07-22T05:51:37Z</time>
      </trkpt>
      <trkpt lat="47.37456" lon="-2.19603">
        <ele>1</ele>
        <time>2016-07-22T05:51:42Z</time>
      </trkpt>
      <trkpt lat="47.3743" lon="-2.19579">
        <ele>2</ele>
        <time>2016-07-22T05:51:47Z</time>
      </trkpt>
      <trkpt lat="47.37404" lon="-2.19556">
        <ele>4</ele>
        <time>2016-07-22T05:51:52Z</time>
      </trkpt>
      <trkpt lat="47.37379" lon="-2.19532">
        <ele>3</ele>
        <time>2016-07-22T05:51:57Z</time>
      </trkpt>
      <trkpt lat="47.37354" lon="-2.19508">
        <ele>3</ele>
        <time>2016-07-22T05:52:02Z</time>
      </trkpt>
      <trkpt lat="47.37328" lon="-2.19486">
        <ele>4</ele>
        <time>2016-07-22T05:52:07Z</time>
      </trkpt>
      <trkpt lat="47.37304" lon="-2.19466">
        <ele>4</ele>
        <time>2016-07-22T05:52:12Z</time>
      </trkpt>
      <trkpt lat="47.37281" lon="-2.19444">
        <ele>3</ele>
        <time>2016-07-22T05:52:17Z</time>
      </trkpt>
      <trkpt lat="47.37257" lon="-2.19423">
        <ele>2</ele>
        <time>2016-07-22T05:52:22Z</time>
      </trkpt>
      <trkpt lat="47.37223" lon="-2.19393">
        <ele>-1</ele>
        <time>2016-07-22T05:52:29Z</time>
      </trkpt>
      <trkpt lat="47.3721" lon="-2.19379">
        <ele>-3</ele>
        <time>2016-07-22T05:52:32Z</time>
      </trkpt>
      <trkpt lat="47.37186" lon="-2.1936">
        <ele>-3</ele>
        <time>2016-07-22T05:52:37Z</time>
      </trkpt>
      <trkpt lat="47.3716" lon="-2.19344">
        <ele>-1</ele>
        <time>2016-07-22T05:52:42Z</time>
      </trkpt>
      <trkpt lat="47.37127" lon="-2.19317">
        <ele>3.2</ele>
        <time>2016-07-22T05:52:49Z</time>
      </trkpt>
      <trkpt lat="47.37113" lon="-2.19305">
        <ele>1</ele>
        <time>2016-07-22T05:52:52Z</time>
      </trkpt>
      <trkpt lat="47.37091" lon="-2.19283">
        <ele>-1</ele>
        <time>2016-07-22T05:52:57Z</time>
      </trkpt>
      <trkpt lat="47.37067" lon="-2.1926">
        <ele>-4</ele>
        <time>2016-07-22T05:53:02Z</time>
      </trkpt>
      <trkpt lat="47.37045" lon="-2.19236">
        <ele>-4</ele>
        <time>2016-07-22T05:53:07Z</time>
      </trkpt>
      <trkpt lat="47.37023" lon="-2.19216">
        <ele>-2</ele>
        <time>2016-07-22T05:53:12Z</time>
      </trkpt>
      <trkpt lat="47.37001" lon="-2.19195">
        <ele>-1</ele>
        <time>2016-07-22T05:53:17Z</time>
      </trkpt>
      <trkpt lat="47.36979" lon="-2.19171">
        <ele>-2</ele>
        <time>2016-07-22T05:53:22Z</time>
      </trkpt>
      <trkpt lat="47.36957" lon="-2.19147">
        <ele>-2</ele>
        <time>2016-07-22T05:53:27Z</time>
      </trkpt>
      <trkpt lat="47.36935" lon="-2.19123">
        <ele>-2</ele>
        <time>2016-07-22T05:53:32Z</time>
      </trkpt>
      <trkpt lat="47.36912" lon="-2.19097">
        <ele>-3</ele>
        <time>2016-07-22T05:53:37Z</time>
      </trkpt>
      <trkpt lat="47.3689" lon="-2.19073">
        <ele>-3</ele>
        <time>2016-07-22T05:53:42Z</time>
      </trkpt>
      <trkpt lat="47.36868" lon="-2.1905">
        <ele>-3</ele>
        <time>2016-07-22T05:53:47Z</time>
      </trkpt>
      <trkpt lat="47.36846" lon="-2.19028">
        <ele>-3</ele>
        <time>2016-07-22T05:53:52Z</time>
      </trkpt>
      <trkpt lat="47.36824" lon="-2.19007">
        <ele>-2</ele>
        <time>2016-07-22T05:53:57Z</time>
      </trkpt>
      <trkpt lat="47.36803" lon="-2.18985">
        <ele>5</ele>
        <time>2016-07-22T05:54:02Z</time>
      </trkpt>
      <trkpt lat="47.3678" lon="-2.18964">
        <ele>5</ele>
        <time>2016-07-22T05:54:07Z</time>
      </trkpt>
      <trkpt lat="47.36756" lon="-2.18947">
        <ele>2</ele>
        <time>2016-07-22T05:54:12Z</time>
      </trkpt>
      <trkpt lat="47.36731" lon="-2.18929">
        <ele>2</ele>
        <time>2016-07-22T05:54:17Z</time>
      </trkpt>
      <trkpt lat="47.36704" lon="-2.18914">
        <ele>2</ele>
        <time>2016-07-22T05:54:22Z</time>
      </trkpt>
      <trkpt lat="47.36678" lon="-2.189">
        <ele>2</ele>
        <time>2016-07-22T05:54:27Z</time>
      </trkpt>
      <trkpt lat="47.36652" lon="-2.18884">
        <ele>1</ele>
        <time>2016-07-22T05:54:32Z</time>
      </trkpt>
      <trkpt lat="47.36625" lon="-2.18869">
        <ele>4.8</ele>
        <time>2016-07-22T05:54:37Z</time>
      </trkpt>
      <trkpt lat="47.36597" lon="-2.18853">
        <ele>-2</ele>
        <time>2016-07-22T05:54:42Z</time>
      </trkpt>
      <trkpt lat="47.36569" lon="-2.18836">
        <ele>-3</ele>
        <time>2016-07-22T05:54:47Z</time>
      </trkpt>
      <trkpt lat="47.36543" lon="-2.18819">
        <ele>-3</ele>
        <time>2016-07-22T05:54:52Z</time>
      </trkpt>
      <trkpt lat="47.36518" lon="-2.18799">
        <ele>-1</ele>
        <time>2016-07-22T05:54:57Z</time>
      </trkpt>
      <trkpt lat="47.36496" lon="-2.18774">
        <ele>-2</ele>
        <time>2016-07-22T05:55:02Z</time>
      </trkpt>
      <trkpt lat="47.3647" lon="-2.18743">
        <ele>-3</ele>
        <time>2016-07-22T05:55:08Z</time>
      </trkpt>
      <trkpt lat="47.36449" lon="-2.18724">
        <ele>-1</ele>
        <time>2016-07-22T05:55:13Z</time>
      </trkpt>
      <trkpt lat="47.36432" lon="-2.18704">
        <ele>-2</ele>
        <time>2016-07-22T05:55:17Z</time>
      </trkpt>
      <trkpt lat="47.36411" lon="-2.18681">
        <ele>-2</ele>
        <time>2016-07-22T05:55:22Z</time>
      </trkpt>
      <trkpt lat="47.3639" lon="-2.18658">
        <ele>-3</ele>
        <time>2016-07-22T05:55:27Z</time>
      </trkpt>
      <trkpt lat="47.3637" lon="-2.18642">
        <ele>1</ele>
        <time>2016-07-22T05:55:32Z</time>
      </trkpt>
      <trkpt lat="47.36353" lon="-2.18612">
        <ele>2</ele>
        <time>2016-07-22T05:55:37Z</time>
      </trkpt>
      <trkpt lat="47.36331" lon="-2.18586">
        <ele>1</ele>
        <time>2016-07-22T05:55:42Z</time>
      </trkpt>
      <trkpt lat="47.36309" lon="-2.18562">
        <ele>1.8</ele>
        <time>2016-07-22T05:55:47Z</time>
      </trkpt>
      <trkpt lat="47.36284" lon="-2.18544">
        <ele>1</ele>
        <time>2016-07-22T05:55:52Z</time>
      </trkpt>
      <trkpt lat="47.36257" lon="-2.18531">
        <ele>3</ele>
        <time>2016-07-22T05:55:57Z</time>
      </trkpt>
      <trkpt lat="47.36233" lon="-2.18524">
        <ele>1</ele>
        <time>2016-07-22T05:56:02Z</time>
      </trkpt>
      <trkpt lat="47.36205" lon="-2.18523">
        <ele>2</ele>
        <time>2016-07-22T05:56:08Z</time>
      </trkpt>
      <trkpt lat="47.36183" lon="-2.18525">
        <ele>2</ele>
        <time>2016-07-22T05:56:12Z</time>
      </trkpt>
      <trkpt lat="47.36152" lon="-2.18534">
        <ele>1</ele>
        <time>2016-07-22T05:56:17Z</time>
      </trkpt>
      <trkpt lat="47.36125" lon="-2.18545">
        <ele>2</ele>
        <time>2016-07-22T05:56:22Z</time>
      </trkpt>
      <trkpt lat="47.36099" lon="-2.18557">
        <ele>2</ele>
        <time>2016-07-22T05:56:27Z</time>
      </trkpt>
      <trkpt lat="47.36073" lon="-2.18569">
        <ele>2</ele>
        <time>2016-07-22T05:56:32Z</time>
      </trkpt>
      <trkpt lat="47.3604" lon="-2.18585">
        <ele>4</ele>
        <time>2016-07-22T05:56:39Z</time>
      </trkpt>
      <trkpt lat="47.36024" lon="-2.1859">
        <ele>6</ele>
        <time>2016-07-22T05:56:42Z</time>
      </trkpt>
      <trkpt lat="47.35995" lon="-2.18596">
        <ele>4</ele>
        <time>2016-07-22T05:56:47Z</time>
      </trkpt>
      <trkpt lat="47.35946" lon="-2.18591">
        <ele>3</ele>
        <time>2016-07-22T05:56:56Z</time>
      </trkpt>
      <trkpt lat="47.35941" lon="-2.18587">
        <ele>4</ele>
        <time>2016-07-22T05:56:57Z</time>
      </trkpt>
      <trkpt lat="47.35915" lon="-2.18572">
        <ele>4</ele>
        <time>2016-07-22T05:57:02Z</time>
      </trkpt>
      <trkpt lat="47.35874" lon="-2.1855">
        <ele>4</ele>
        <time>2016-07-22T05:57:10Z</time>
      </trkpt>
      <trkpt lat="47.35852" lon="-2.18541">
        <ele>3</ele>
        <time>2016-07-22T05:57:14Z</time>
      </trkpt>
      <trkpt lat="47.35837" lon="-2.18532">
        <ele>3</ele>
        <time>2016-07-22T05:57:17Z</time>
      </trkpt>
      <trkpt lat="47.35811" lon="-2.18518">
        <ele>4</ele>
        <time>2016-07-22T05:57:22Z</time>
      </trkpt>
      <trkpt lat="47.35785" lon="-2.18504">
        <ele>4</ele>
        <time>2016-07-22T05:57:27Z</time>
      </trkpt>
      <trkpt lat="47.35745" lon="-2.18481">
        <ele>2</ele>
        <time>2016-07-22T05:57:35Z</time>
      </trkpt>
      <trkpt lat="47.35736" lon="-2.18476">
        <ele>2</ele>
        <time>2016-07-22T05:57:37Z</time>
      </trkpt>
      <trkpt lat="47.35711" lon="-2.18464">
        <ele>6</ele>
        <time>2016-07-22T05:57:42Z</time>
      </trkpt>
      <trkpt lat="47.35677" lon="-2.18453">
        <ele>-3</ele>
        <time>2016-07-22T05:57:49Z</time>
      </trkpt>
      <trkpt lat="47.35654" lon="-2.18449">
        <ele>-2</ele>
        <time>2016-07-22T05:57:54Z</time>
      </trkpt>
      <trkpt lat="47.35641" lon="-2.18446">
        <ele>-2</ele>
        <time>2016-07-22T05:57:57Z</time>
      </trkpt>
      <trkpt lat="47.35621" lon="-2.18437">
        <ele>-3</ele>
        <time>2016-07-22T05:58:02Z</time>
      </trkpt>
      <trkpt lat="47.356" lon="-2.18428">
        <ele>-3</ele>
        <time>2016-07-22T05:58:07Z</time>
      </trkpt>
      <trkpt lat="47.35566" lon="-2.18398">
        <ele>-3</ele>
        <time>2016-07-22T05:58:16Z</time>
      </trkpt>
      <trkpt lat="47.35563" lon="-2.18395">
        <ele>-2</ele>
        <time>2016-07-22T05:58:17Z</time>
      </trkpt>
      <trkpt lat="47.35543" lon="-2.18374">
        <ele>8.5</ele>
        <time>2016-07-22T05:58:22Z</time>
      </trkpt>
      <trkpt lat="47.35519" lon="-2.18348">
        <ele>2</ele>
        <time>2016-07-22T05:58:28Z</time>
      </trkpt>
      <trkpt lat="47.355" lon="-2.18331">
        <ele>1</ele>
        <time>2016-07-22T05:58:32Z</time>
      </trkpt>
      <trkpt lat="47.35479" lon="-2.1831">
        <ele>2</ele>
        <time>2016-07-22T05:58:37Z</time>
      </trkpt>
      <trkpt lat="47.35455" lon="-2.18288">
        <ele>4</ele>
        <time>2016-07-22T05:58:42Z</time>
      </trkpt>
      <trkpt lat="47.3542" lon="-2.18263">
        <ele>3</ele>
        <time>2016-07-22T05:58:49Z</time>
      </trkpt>
      <trkpt lat="47.35404" lon="-2.18257">
        <ele>4</ele>
        <time>2016-07-22T05:58:52Z</time>
      </trkpt>
      <trkpt lat="47.35376" lon="-2.18252">
        <ele>2</ele>
        <time>2016-07-22T05:58:57Z</time>
      </trkpt>
      <trkpt lat="47.3535" lon="-2.18246">
        <ele>3</ele>
        <time>2016-07-22T05:59:02Z</time>
      </trkpt>
      <trkpt lat="47.35325" lon="-2.18242">
        <ele>4</ele>
        <time>2016-07-22T05:59:07Z</time>
      </trkpt>
      <trkpt lat="47.35299" lon="-2.18238">
        <ele>5</ele>
        <time>2016-07-22T05:59:12Z</time>
      </trkpt>
      <trkpt lat="47.35272" lon="-2.18232">
        <ele>5</ele>
        <time>2016-07-22T05:59:17Z</time>
      </trkpt>
      <trkpt lat="47.35245" lon="-2.18222">
        <ele>6</ele>
        <time>2016-07-22T05:59:22Z</time>
      </trkpt>
      <trkpt lat="47.35205" lon="-2.18194">
        <ele>5</ele>
        <time>2016-07-22T05:59:31Z</time>
      </trkpt>
      <trkpt lat="47.35201" lon="-2.1819">
        <ele>5</ele>
        <time>2016-07-22T05:59:32Z</time>
      </trkpt>
      <trkpt lat="47.35182" lon="-2.1817">
        <ele>7</ele>
        <time>2016-07-22T05:59:37Z</time>
      </trkpt>
      <trkpt lat="47.35159" lon="-2.18149">
        <ele>7</ele>
        <time>2016-07-22T05:59:42Z</time>
      </trkpt>
      <trkpt lat="47.35136" lon="-2.1813">
        <ele>7</ele>
        <time>2016-07-22T05:59:47Z</time>
      </trkpt>
      <trkpt lat="47.35115" lon="-2.1811">
        <ele>5</ele>
        <time>2016-07-22T05:59:52Z</time>
      </trkpt>
      <trkpt lat="47.35094" lon="-2.18092">
        <ele>3</ele>
        <time>2016-07-22T05:59:57Z</time>
      </trkpt>
      <trkpt lat="47.35074" lon="-2.18071">
        <ele>2</ele>
        <time>2016-07-22T06:00:02Z</time>
      </trkpt>
      <trkpt lat="47.35054" lon="-2.18053">
        <ele>4</ele>
        <time>2016-07-22T06:00:07Z</time>
      </trkpt>
      <trkpt lat="47.35034" lon="-2.1803">
        <ele>3</ele>
        <time>2016-07-22T06:00:12Z</time>
      </trkpt>
      <trkpt lat="47.35015" lon="-2.1801">
        <ele>6</ele>
        <time>2016-07-22T06:00:17Z</time>
      </trkpt>
      <trkpt lat="47.34997" lon="-2.17993">
        <ele>8</ele>
        <time>2016-07-22T06:00:22Z</time>
      </trkpt>
      <trkpt lat="47.34979" lon="-2.17976">
        <ele>7</ele>
        <time>2016-07-22T06:00:27Z</time>
      </trkpt>
      <trkpt lat="47.34958" lon="-2.17954">
        <ele>6</ele>
        <time>2016-07-22T06:00:32Z</time>
      </trkpt>
      <trkpt lat="47.34938" lon="-2.17932">
        <ele>8</ele>
        <time>2016-07-22T06:00:37Z</time>
      </trkpt>
      <trkpt lat="47.34917" lon="-2.1791">
        <ele>8</ele>
        <time>2016-07-22T06:00:42Z</time>
      </trkpt>
      <trkpt lat="47.3488" lon="-2.17864">
        <ele>9</ele>
        <time>2016-07-22T06:00:51Z</time>
      </trkpt>
      <trkpt lat="47.34875" lon="-2.17859">
        <ele>9</ele>
        <time>2016-07-22T06:00:52Z</time>
      </trkpt>
      <trkpt lat="47.34854" lon="-2.17835">
        <ele>9</ele>
        <time>2016-07-22T06:00:57Z</time>
      </trkpt>
      <trkpt lat="47.34819" lon="-2.1779">
        <ele>8</ele>
        <time>2016-07-22T06:01:05Z</time>
      </trkpt>
      <trkpt lat="47.34808" lon="-2.17779">
        <ele>9</ele>
        <time>2016-07-22T06:01:07Z</time>
      </trkpt>
      <trkpt lat="47.34765" lon="-2.17723">
        <ele>4</ele>
        <time>2016-07-22T06:01:16Z</time>
      </trkpt>
      <trkpt lat="47.34761" lon="-2.17717">
        <ele>4</ele>
        <time>2016-07-22T06:01:17Z</time>
      </trkpt>
      <trkpt lat="47.34739" lon="-2.17688">
        <ele>3</ele>
        <time>2016-07-22T06:01:22Z</time>
      </trkpt>
      <trkpt lat="47.34701" lon="-2.1763">
        <ele>-1</ele>
        <time>2016-07-22T06:01:31Z</time>
      </trkpt>
      <trkpt lat="47.34697" lon="-2.17623">
        <ele>-1</ele>
        <time>2016-07-22T06:01:32Z</time>
      </trkpt>
      <trkpt lat="47.34676" lon="-2.1759">
        <ele>-1</ele>
        <time>2016-07-22T06:01:37Z</time>
      </trkpt>
      <trkpt lat="47.34656" lon="-2.17557">
        <ele>-1</ele>
        <time>2016-07-22T06:01:42Z</time>
      </trkpt>
      <trkpt lat="47.34634" lon="-2.17522">
        <ele>-2</ele>
        <time>2016-07-22T06:01:47Z</time>
      </trkpt>
      <trkpt lat="47.34613" lon="-2.1749">
        <ele>-1</ele>
        <time>2016-07-22T06:01:52Z</time>
      </trkpt>
      <trkpt lat="47.34591" lon="-2.17462">
        <ele>-2</ele>
        <time>2016-07-22T06:01:57Z</time>
      </trkpt>
      <trkpt lat="47.34562" lon="-2.17438">
        <ele>-4</ele>
        <time>2016-07-22T06:02:03Z</time>
      </trkpt>
      <trkpt lat="47.34537" lon="-2.17418">
        <ele>-2</ele>
        <time>2016-07-22T06:02:09Z</time>
      </trkpt>
      <trkpt lat="47.34525" lon="-2.17405">
        <ele>-3</ele>
        <time>2016-07-22T06:02:12Z</time>
      </trkpt>
      <trkpt lat="47.34506" lon="-2.17385">
        <ele>5.8</ele>
        <time>2016-07-22T06:02:17Z</time>
      </trkpt>
      <trkpt lat="47.34488" lon="-2.17366">
        <ele>1</ele>
        <time>2016-07-22T06:02:22Z</time>
      </trkpt>
      <trkpt lat="47.34468" lon="-2.17347">
        <ele>1</ele>
        <time>2016-07-22T06:02:27Z</time>
      </trkpt>
      <trkpt lat="47.34452" lon="-2.17322">
        <ele>6.9</ele>
        <time>2016-07-22T06:02:32Z</time>
      </trkpt>
      <trkpt lat="47.34431" lon="-2.17297">
        <ele>-1</ele>
        <time>2016-07-22T06:02:37Z</time>
      </trkpt>
      <trkpt lat="47.3441" lon="-2.17273">
        <ele>-1</ele>
        <time>2016-07-22T06:02:42Z</time>
      </trkpt>
      <trkpt lat="47.34391" lon="-2.17252">
        <ele>-2</ele>
        <time>2016-07-22T06:02:47Z</time>
      </trkpt>
      <trkpt lat="47.34369" lon="-2.17233">
        <ele>-3</ele>
        <time>2016-07-22T06:02:52Z</time>
      </trkpt>
      <trkpt lat="47.34348" lon="-2.17217">
        <ele>-4</ele>
        <time>2016-07-22T06:02:57Z</time>
      </trkpt>
      <trkpt lat="47.34327" lon="-2.172">
        <ele>-4</ele>
        <time>2016-07-22T06:03:02Z</time>
      </trkpt>
      <trkpt lat="47.34307" lon="-2.17179">
        <ele>-5</ele>
        <time>2016-07-22T06:03:07Z</time>
      </trkpt>
      <trkpt lat="47.34287" lon="-2.17157">
        <ele>-6</ele>
        <time>2016-07-22T06:03:12Z</time>
      </trkpt>
      <trkpt lat="47.34268" lon="-2.17132">
        <ele>-6</ele>
        <time>2016-07-22T06:03:17Z</time>
      </trkpt>
      <trkpt lat="47.34249" lon="-2.17106">
        <ele>-6</ele>
        <time>2016-07-22T06:03:22Z</time>
      </trkpt>
      <trkpt lat="47.34229" lon="-2.17082">
        <ele>-8</ele>
        <time>2016-07-22T06:03:27Z</time>
      </trkpt>
      <trkpt lat="47.34207" lon="-2.17056">
        <ele>-8</ele>
        <time>2016-07-22T06:03:32Z</time>
      </trkpt>
      <trkpt lat="47.34187" lon="-2.17029">
        <ele>-7</ele>
        <time>2016-07-22T06:03:37Z</time>
      </trkpt>
      <trkpt lat="47.34163" lon="-2.17001">
        <ele>-8</ele>
        <time>2016-07-22T06:03:42Z</time>
      </trkpt>
      <trkpt lat="47.34136" lon="-2.16976">
        <ele>-9</ele>
        <time>2016-07-22T06:03:47Z</time>
      </trkpt>
      <trkpt lat="47.34095" lon="-2.16933">
        <ele>-5</ele>
        <time>2016-07-22T06:03:55Z</time>
      </trkpt>
      <trkpt lat="47.34062" lon="-2.16901">
        <ele>-7</ele>
        <time>2016-07-22T06:04:01Z</time>
      </trkpt>
      <trkpt lat="47.34057" lon="-2.16895">
        <ele>-6</ele>
        <time>2016-07-22T06:04:02Z</time>
      </trkpt>
      <trkpt lat="47.34019" lon="-2.16863">
        <ele>3</ele>
        <time>2016-07-22T06:04:10Z</time>
      </trkpt>
      <trkpt lat="47.33997" lon="-2.16846">
        <ele>-1</ele>
        <time>2016-07-22T06:04:14Z</time>
      </trkpt>
      <trkpt lat="47.33982" lon="-2.16838">
        <ele>3</ele>
        <time>2016-07-22T06:04:17Z</time>
      </trkpt>
      <trkpt lat="47.33954" lon="-2.16807">
        <ele>1</ele>
        <time>2016-07-22T06:04:23Z</time>
      </trkpt>
      <trkpt lat="47.33926" lon="-2.16763">
        <ele>2</ele>
        <time>2016-07-22T06:04:29Z</time>
      </trkpt>
      <trkpt lat="47.33909" lon="-2.16746">
        <ele>1</ele>
        <time>2016-07-22T06:04:32Z</time>
      </trkpt>
      <trkpt lat="47.33883" lon="-2.16718">
        <ele>-2</ele>
        <time>2016-07-22T06:04:37Z</time>
      </trkpt>
      <trkpt lat="47.33857" lon="-2.16692">
        <ele>-3</ele>
        <time>2016-07-22T06:04:42Z</time>
      </trkpt>
      <trkpt lat="47.33836" lon="-2.1667">
        <ele>-1</ele>
        <time>2016-07-22T06:04:47Z</time>
      </trkpt>
      <trkpt lat="47.33813" lon="-2.16646">
        <ele>-2</ele>
        <time>2016-07-22T06:04:52Z</time>
      </trkpt>
      <trkpt lat="47.33791" lon="-2.1662">
        <ele>-1</ele>
        <time>2016-07-22T06:04:57Z</time>
      </trkpt>
      <trkpt lat="47.33769" lon="-2.16597">
        <ele>2.5</ele>
        <time>2016-07-22T06:05:02Z</time>
      </trkpt>
      <trkpt lat="47.33748" lon="-2.16573">
        <ele>-1</ele>
        <time>2016-07-22T06:05:07Z</time>
      </trkpt>
      <trkpt lat="47.33724" lon="-2.16549">
        <ele>-1</ele>
        <time>2016-07-22T06:05:12Z</time>
      </trkpt>
      <trkpt lat="47.33701" lon="-2.16525">
        <ele>-2</ele>
        <time>2016-07-22T06:05:17Z</time>
      </trkpt>
      <trkpt lat="47.33679" lon="-2.16502">
        <ele>-4</ele>
        <time>2016-07-22T06:05:22Z</time>
      </trkpt>
      <trkpt lat="47.33658" lon="-2.16479">
        <ele>-4</ele>
        <time>2016-07-22T06:05:27Z</time>
      </trkpt>
      <trkpt lat="47.33636" lon="-2.16455">
        <ele>-4</ele>
        <time>2016-07-22T06:05:32Z</time>
      </trkpt>
      <trkpt lat="47.33613" lon="-2.1643">
        <ele>-5</ele>
        <time>2016-07-22T06:05:37Z</time>
      </trkpt>
      <trkpt lat="47.33591" lon="-2.16408">
        <ele>-6</ele>
        <time>2016-07-22T06:05:42Z</time>
      </trkpt>
      <trkpt lat="47.33569" lon="-2.16388">
        <ele>-7</ele>
        <time>2016-07-22T06:05:47Z</time>
      </trkpt>
      <trkpt lat="47.33549" lon="-2.16365">
        <ele>-6</ele>
        <time>2016-07-22T06:05:52Z</time>
      </trkpt>
      <trkpt lat="47.33527" lon="-2.16343">
        <ele>-6</ele>
        <time>2016-07-22T06:05:57Z</time>
      </trkpt>
      <trkpt lat="47.33505" lon="-2.16319">
        <ele>-7</ele>
        <time>2016-07-22T06:06:02Z</time>
      </trkpt>
      <trkpt lat="47.33484" lon="-2.16297">
        <ele>-6</ele>
        <time>2016-07-22T06:06:07Z</time>
      </trkpt>
      <trkpt lat="47.33461" lon="-2.16275">
        <ele>-5</ele>
        <time>2016-07-22T06:06:12Z</time>
      </trkpt>
      <trkpt lat="47.33441" lon="-2.16255">
        <ele>-3</ele>
        <time>2016-07-22T06:06:17Z</time>
      </trkpt>
      <trkpt lat="47.33417" lon="-2.16234">
        <ele>-2</ele>
        <time>2016-07-22T06:06:22Z</time>
      </trkpt>
      <trkpt lat="47.33395" lon="-2.16215">
        <ele>-2</ele>
        <time>2016-07-22T06:06:27Z</time>
      </trkpt>
      <trkpt lat="47.33375" lon="-2.16197">
        <ele>-2</ele>
        <time>2016-07-22T06:06:32Z</time>
      </trkpt>
      <trkpt lat="47.33353" lon="-2.16177">
        <ele>-3</ele>
        <time>2016-07-22T06:06:37Z</time>
      </trkpt>
      <trkpt lat="47.33328" lon="-2.16158">
        <ele>-4</ele>
        <time>2016-07-22T06:06:42Z</time>
      </trkpt>
      <trkpt lat="47.33303" lon="-2.16139">
        <ele>-6</ele>
        <time>2016-07-22T06:06:47Z</time>
      </trkpt>
      <trkpt lat="47.3328" lon="-2.16117">
        <ele>-5</ele>
        <time>2016-07-22T06:06:52Z</time>
      </trkpt>
      <trkpt lat="47.33259" lon="-2.16098">
        <ele>-4</ele>
        <time>2016-07-22T06:06:57Z</time>
      </trkpt>
      <trkpt lat="47.33238" lon="-2.16079">
        <ele>-3</ele>
        <time>2016-07-22T06:07:02Z</time>
      </trkpt>
      <trkpt lat="47.33217" lon="-2.16059">
        <ele>-3</ele>
        <time>2016-07-22T06:07:07Z</time>
      </trkpt>
      <trkpt lat="47.33196" lon="-2.16037">
        <ele>-3</ele>
        <time>2016-07-22T06:07:12Z</time>
      </trkpt>
      <trkpt lat="47.33184" lon="-2.16009">
        <ele>-3</ele>
        <time>2016-07-22T06:07:17Z</time>
      </trkpt>
      <trkpt lat="47.33185" lon="-2.15992">
        <ele>-3</ele>
        <time>2016-07-22T06:07:22Z</time>
      </trkpt>
      <trkpt lat="47.33186" lon="-2.15993">
        <ele>-3</ele>
        <time>2016-07-22T06:07:27Z</time>
      </trkpt>
    </trkseg>
  </trk>
</gpx>